Long Island City, NY

8:52 AM EDT on July 27, 2016 (GMT -0400)
Sutton East | | Change Station

Elev 79 ft 40.76 °N, 73.97 °W | Updated 10 seconds ago

Clear
Clear
83.3 °F
Feels Like 82 °F
N
0.0
Wind Variable Wind from SSW

Today
High -- | Low -- °F
--% Chance of Precip.
Yesterday
High -- | Low -- °F
Precip. -- in
Pressure 29.96 in
Visibility 9.0 miles
Clouds Clear
Heat Index 82 °F
Dew Point 53 °F
Humidity 35%
Rainfall 0.00 in
Snow Depth Not available.
5:48 AM 8:15 PM
Last Quarter, 43% visible
METAR KNYC 271151Z AUTO 03004KT 9SM CLR 26/16 A2999 RMK AO2 SLP144 T02560156 10267 20233 51007 $
Pressure 29.96 in
Visibility 9.0 miles
Clouds Clear
Heat Index 82 °F
Dew Point 53 °F
Humidity 35%
Rainfall 0.00 in
Snow Depth Not available.
5:48 AM 8:15 PM
Last Quarter, 43% visible
METAR KNYC 271151Z AUTO 03004KT 9SM CLR 26/16 A2999 RMK AO2 SLP144 T02560156 10267 20233 51007 $

10-Day Weather Forecast

Almanac

Astronomy

Jul. 27, 2016 Rise Set
Actual Time
Civil Twilight
Nautical Twilight
Astronomical Twilight
Moon
Length of Visible Light
Length of Day
Tomorrow will be .
, % of the Moon is Illuminated

Today's Extremes

State Highs State Lows

Community

WunderPhotos

Upload Photos

1,927,841 photos uploaded!

WunderBlog® & News

Nearby

Air Quality

  Air Quality AQ Index Pollutant
Not available.

Snow Depth

Station Depth Elevation

Earthquake Activity

City Distance Mag. Time & Date
Minimum magnitude displayed is 2.5.

Coastal Water Temperatures

Place Temperature

Stations

Nearby Weather Stations

Station Location Temp. Windchill Dew Point Humidity Wind Precip. Elev Updated Type
                   

Watches & Warnings

There are currently no watches in effect.